createdAt,value
2018-05-01T00:02:25.975Z,49.89
2018-05-01T00:04:55.556Z,49.91
2018-05-01T00:07:25.128Z,50.06
2018-05-01T00:09:54.695Z,50.05
2018-05-01T00:12:24.263Z,50.30
2018-05-01T00:14:53.824Z,50.45
2018-05-01T00:17:23.413Z,50.44
2018-05-01T00:19:53.175Z,50.68
2018-05-01T00:22:22.736Z,50.60
2018-05-01T00:24:52.327Z,50.59
2018-05-01T00:27:21.879Z,50.62
2018-05-01T00:29:51.434Z,50.54
2018-05-01T00:32:21.010Z,50.67
2018-05-01T00:34:50.589Z,50.55
2018-05-01T00:37:20.305Z,50.47
2018-05-01T00:39:50.049Z,50.50
2018-05-01T00:42:19.601Z,50.64
2018-05-01T00:44:49.152Z,50.60
2018-05-01T00:47:18.708Z,50.43
2018-05-01T00:49:48.276Z,50.75
2018-05-01T00:52:29.069Z,50.68
2018-05-01T00:54:58.380Z,50.63
2018-05-01T00:57:27.947Z,50.75
2018-05-01T00:59:57.526Z,50.73
2018-05-01T01:02:27.072Z,50.82
2018-05-01T01:04:56.394Z,50.98
2018-05-01T01:07:26.183Z,51.05
2018-05-01T01:09:55.744Z,51.07
2018-05-01T01:12:25.336Z,51.07
2018-05-01T01:14:54.971Z,51.08
2018-05-01T01:17:24.674Z,51.15
2018-05-01T01:19:54.366Z,51.00
2018-05-01T01:22:24.071Z,50.98
2018-05-01T01:24:53.655Z,51.08
2018-05-01T01:27:23.241Z,51.01
2018-05-01T01:29:52.790Z,50.92
2018-05-01T01:32:22.907Z,50.86
2018-05-01T01:34:52.527Z,50.85
2018-05-01T01:37:20.799Z,51.15
2018-05-01T01:39:49.253Z,51.17
2018-05-01T01:42:17.699Z,51.08
2018-05-01T01:44:46.180Z,51.07
2018-05-01T01:47:14.663Z,51.14
2018-05-01T01:49:42.895Z,50.91
2018-05-01T01:52:11.373Z,51.14
2018-05-01T01:54:39.835Z,50.88
2018-05-01T01:57:08.300Z,50.72
2018-05-01T01:59:36.843Z,50.78
2018-05-01T02:02:05.403Z,50.88
2018-05-01T02:04:33.652Z,50.53
2018-05-01T02:07:01.878Z,50.66
2018-05-01T02:09:30.355Z,50.79
2018-05-01T02:11:58.791Z,50.65
2018-05-01T02:14:27.234Z,50.69
2018-05-01T02:16:55.703Z,50.64
2018-05-01T02:19:24.154Z,50.62
2018-05-01T02:21:52.746Z,50.60
2018-05-01T02:24:21.206Z,50.61
2018-05-01T02:26:49.665Z,50.52
2018-05-01T02:29:17.888Z,50.59
2018-05-01T02:31:46.363Z,50.31
2018-05-01T02:34:14.810Z,50.33
2018-05-01T02:36:43.258Z,50.48
2018-05-01T02:39:11.730Z,50.41
2018-05-01T02:41:40.260Z,50.37
2018-05-01T02:44:08.724Z,50.33
2018-05-01T02:46:37.162Z,50.05
2018-05-01T02:49:05.727Z,50.33
2018-05-01T02:51:34.250Z,50.13
2018-05-01T02:54:02.931Z,50.19
2018-05-01T02:56:31.384Z,50.18
2018-05-01T02:58:59.901Z,50.10
2018-05-01T03:01:28.363Z,50.02
2018-05-01T03:03:56.807Z,50.20
2018-05-01T03:06:25.351Z,50.31
2018-05-01T03:08:53.863Z,50.31
2018-05-01T03:11:22.354Z,50.35
2018-05-01T03:13:50.938Z,50.41
2018-05-01T03:16:19.391Z,50.27
2018-05-01T03:18:47.596Z,50.47
2018-05-01T03:21:16.105Z,50.54
2018-05-01T03:23:44.556Z,50.59
2018-05-01T03:26:12.994Z,50.70
2018-05-01T03:28:41.518Z,50.80
2018-05-01T03:31:10.023Z,50.90
2018-05-01T03:33:38.482Z,51.08
2018-05-01T03:36:06.923Z,51.14
2018-05-01T03:38:35.998Z,51.11
2018-05-01T03:41:04.438Z,51.23
2018-05-01T03:43:32.897Z,51.47
2018-05-01T03:46:01.401Z,51.52
2018-05-01T03:48:29.875Z,51.68
2018-05-01T03:50:58.973Z,51.87
2018-05-01T03:53:27.444Z,51.98
2018-05-01T03:55:55.905Z,52.22
2018-05-01T03:58:24.317Z,52.41
2018-05-01T04:00:52.534Z,52.52
2018-05-01T04:03:20.712Z,52.58
2018-05-01T04:05:48.882Z,52.89
2018-05-01T04:08:17.380Z,53.10
2018-05-01T04:10:47.545Z,53.25
2018-05-01T04:13:16.109Z,53.46
2018-05-01T04:15:44.584Z,53.33
2018-05-01T04:18:13.089Z,53.39
2018-05-01T04:20:41.676Z,53.49
2018-05-01T04:23:09.926Z,53.37
2018-05-01T04:25:38.361Z,53.34
2018-05-01T04:28:06.841Z,53.35
2018-05-01T04:30:35.315Z,53.01
2018-05-01T04:33:03.776Z,53.00
2018-05-01T04:35:32.355Z,52.92
2018-05-01T04:38:00.887Z,52.97
2018-05-01T04:40:30.031Z,52.97
2018-05-01T04:42:58.496Z,53.01
2018-05-01T04:45:26.943Z,52.72
2018-05-01T04:47:55.491Z,52.88
2018-05-01T04:50:23.964Z,52.66
2018-05-01T04:52:52.418Z,52.73
2018-05-01T04:55:20.927Z,52.65
2018-05-01T04:57:49.520Z,52.70
2018-05-01T05:00:17.972Z,52.59
2018-05-01T05:02:46.444Z,52.51
2018-05-01T05:05:14.901Z,52.44
2018-05-01T05:07:43.782Z,52.32
2018-05-01T05:10:12.245Z,52.33
2018-05-01T05:12:40.727Z,52.41
2018-05-01T05:15:09.189Z,52.16
2018-05-01T05:17:37.652Z,51.88
2018-05-01T05:20:07.134Z,51.95
2018-05-01T05:22:35.810Z,51.66
2018-05-01T05:25:04.327Z,51.52
2018-05-01T05:27:32.907Z,51.24
2018-05-01T05:30:03.351Z,51.11
2018-05-01T05:32:31.831Z,51.35
2018-05-01T05:35:00.398Z,51.07
2018-05-01T05:37:28.876Z,51.04
2018-05-01T05:39:57.320Z,50.93
2018-05-01T05:42:25.785Z,50.90
2018-05-01T05:44:54.238Z,50.55
2018-05-01T05:47:22.681Z,50.38
2018-05-01T05:49:51.165Z,50.40
2018-05-01T05:52:19.625Z,50.54
2018-05-01T05:54:48.064Z,49.83
2018-05-01T05:57:16.543Z,49.87
2018-05-01T05:59:45.183Z,49.54
2018-05-01T06:02:13.642Z,49.15
2018-05-01T06:04:42.335Z,49.23
2018-05-01T06:07:11.016Z,48.95
2018-05-01T06:09:39.486Z,48.47
2018-05-01T06:12:07.955Z,48.20
2018-05-01T06:14:36.430Z,48.04
2018-05-01T06:17:04.904Z,47.82
2018-05-01T06:19:33.349Z,47.36
2018-05-01T06:22:02.001Z,47.48
2018-05-01T06:24:30.622Z,47.48
2018-05-01T06:26:59.225Z,47.41
2018-05-01T06:29:28.563Z,46.00
2018-05-01T06:31:57.074Z,46.30
2018-05-01T06:34:25.526Z,44.62
2018-05-01T06:36:53.998Z,45.00
2018-05-01T06:39:22.552Z,44.80
2018-05-01T06:41:51.039Z,44.43
2018-05-01T06:46:53.129Z,43.06
2018-05-01T06:49:21.591Z,42.97
2018-05-01T06:51:50.043Z,43.05
2018-05-01T06:54:18.531Z,43.42
2018-05-01T06:56:46.978Z,43.16
2018-05-01T06:59:15.470Z,42.79
2018-05-01T07:01:43.959Z,42.69
2018-05-01T07:04:12.537Z,42.66
2018-05-01T07:06:40.780Z,42.93
2018-05-01T07:09:09.255Z,43.00
2018-05-01T07:14:12.469Z,42.19
2018-05-01T07:16:40.920Z,42.29
2018-05-01T07:19:09.431Z,43.29
2018-05-01T07:21:38.055Z,42.69
2018-05-01T07:24:06.591Z,43.29
2018-05-01T07:26:35.066Z,43.42
2018-05-01T07:29:03.509Z,43.81
2018-05-01T07:31:31.950Z,43.45
2018-05-01T07:34:00.471Z,43.42
2018-05-01T07:36:28.935Z,42.77
2018-05-01T07:38:57.404Z,43.00
2018-05-01T07:41:25.983Z,42.77
2018-05-01T07:43:54.578Z,42.45
2018-05-01T07:46:23.035Z,42.15
2018-05-01T07:48:51.340Z,42.29
2018-05-01T07:51:19.827Z,42.42
2018-05-01T07:53:48.330Z,42.34
2018-05-01T07:56:16.803Z,41.95
2018-05-01T07:58:45.241Z,41.76
2018-05-01T08:01:13.726Z,42.42
2018-05-01T08:03:42.190Z,41.61
2018-05-01T08:06:10.464Z,41.52
2018-05-01T08:08:41.934Z,41.44
2018-05-01T08:11:10.405Z,42.00
2018-05-01T08:13:38.894Z,41.14
2018-05-01T08:16:07.383Z,41.11
2018-05-01T08:18:35.886Z,41.01
2018-05-01T08:21:04.516Z,41.12
2018-05-01T08:23:32.972Z,41.18
2018-05-01T08:26:01.429Z,41.08
2018-05-01T08:28:29.884Z,42.37
2018-05-01T08:30:58.355Z,41.24
2018-05-01T08:33:26.828Z,40.71
2018-05-01T08:35:55.269Z,41.30
2018-05-01T08:38:23.731Z,40.74
2018-05-01T08:40:52.887Z,41.64
2018-05-01T08:43:21.344Z,42.17
2018-05-01T08:45:49.810Z,41.98
2018-05-01T08:48:18.291Z,42.06
2018-05-01T08:50:46.726Z,41.83
2018-05-01T08:53:15.182Z,42.16
2018-05-01T08:55:43.722Z,41.71
2018-05-01T08:58:12.338Z,41.84
2018-05-01T09:00:40.923Z,41.67
2018-05-01T09:03:09.412Z,40.78
2018-05-01T09:05:37.868Z,40.85
2018-05-01T09:08:06.315Z,40.64
2018-05-01T09:10:34.786Z,40.16
2018-05-01T09:13:03.235Z,39.46
2018-05-01T09:15:31.685Z,39.22
2018-05-01T09:18:00.198Z,39.22
2018-05-01T09:20:28.627Z,38.69
2018-05-01T09:22:57.087Z,38.66
2018-05-01T09:25:25.617Z,38.21
2018-05-01T09:27:54.228Z,37.60
2018-05-01T09:30:22.778Z,36.97
2018-05-01T09:32:51.246Z,36.92
2018-05-01T09:35:19.673Z,36.44
2018-05-01T09:37:48.282Z,35.69
2018-05-01T09:40:16.757Z,34.83
2018-05-01T09:42:45.276Z,34.91
2018-05-01T09:45:13.779Z,35.03
2018-05-01T09:47:42.323Z,34.57
2018-05-01T09:50:10.898Z,34.42
2018-05-01T09:52:40.527Z,34.40
2018-05-01T09:55:10.136Z,34.08
2018-05-01T09:57:39.689Z,33.79
2018-05-01T10:00:09.034Z,33.62
2018-05-01T10:02:38.368Z,33.81
2018-05-01T10:05:07.927Z,33.37
2018-05-01T10:07:37.500Z,33.19
2018-05-01T10:10:07.048Z,33.25
2018-05-01T10:12:36.612Z,32.37
2018-05-01T10:15:06.183Z,32.23
2018-05-01T10:17:35.757Z,32.18
2018-05-01T10:20:05.303Z,32.07
2018-05-01T10:22:34.864Z,31.42
2018-05-01T10:25:04.267Z,31.63
2018-05-01T10:27:33.612Z,31.48
2018-05-01T10:30:02.962Z,31.36
2018-05-01T10:32:32.515Z,31.38
2018-05-01T10:35:02.178Z,31.08
2018-05-01T10:37:31.723Z,31.54
2018-05-01T10:40:01.291Z,31.27
2018-05-01T10:42:30.883Z,30.65
2018-05-01T10:45:00.664Z,30.82
2018-05-01T10:47:30.230Z,30.34
2018-05-01T10:49:59.803Z,29.86
2018-05-01T10:52:29.142Z,29.62
2018-05-01T10:54:58.719Z,28.76
2018-05-01T10:57:28.289Z,28.59
2018-05-01T10:59:57.863Z,28.01
2018-05-01T11:02:27.449Z,29.17
2018-05-01T11:04:57.034Z,29.36
2018-05-01T11:07:26.600Z,28.42
2018-05-01T11:09:56.177Z,28.65
2018-05-01T11:12:25.536Z,28.49
2018-05-01T11:14:55.111Z,27.74
2018-05-01T11:17:24.737Z,27.60
2018-05-01T11:19:54.301Z,26.98
2018-05-01T11:22:23.893Z,26.34
2018-05-01T11:24:53.483Z,25.83
2018-05-01T11:27:23.055Z,25.46
2018-05-01T11:29:52.613Z,25.00
2018-05-01T11:32:22.194Z,23.56
2018-05-01T11:34:52.333Z,22.71
2018-05-01T11:37:21.894Z,22.55
2018-05-01T11:39:51.479Z,22.53
2018-05-01T11:42:21.043Z,21.31
2018-05-01T11:44:50.650Z,23.21
2018-05-01T11:47:20.363Z,23.81
2018-05-01T11:49:49.947Z,23.34
2018-05-01T11:52:19.503Z,24.93
2018-05-01T11:54:49.065Z,24.59
2018-05-01T11:57:18.633Z,24.61
2018-05-01T11:59:48.232Z,24.19
2018-05-01T12:02:17.800Z,24.80
2018-05-01T12:04:47.394Z,26.16
2018-05-01T12:07:16.973Z,26.99
2018-05-01T12:09:46.668Z,27.35
2018-05-01T12:12:16.235Z,27.56
2018-05-01T12:14:45.795Z,27.75
2018-05-01T12:17:15.366Z,28.54
2018-05-01T12:19:44.933Z,28.83
2018-05-01T12:22:14.498Z,29.32
2018-05-01T12:24:43.716Z,30.22
2018-05-01T12:27:13.278Z,29.86
2018-05-01T12:29:42.861Z,29.92
2018-05-01T12:32:12.452Z,29.50
2018-05-01T12:34:42.018Z,29.52
2018-05-01T12:37:11.811Z,29.80
2018-05-01T12:39:41.465Z,29.78
2018-05-01T12:42:11.056Z,29.50
2018-05-01T12:44:40.418Z,28.84
2018-05-01T12:47:09.991Z,28.69
2018-05-01T12:49:39.589Z,28.47
2018-05-01T12:52:09.150Z,28.64
2018-05-01T12:54:38.739Z,29.09
2018-05-01T12:57:08.303Z,29.94
2018-05-01T12:59:40.746Z,29.55
2018-05-01T13:02:10.466Z,28.44
2018-05-01T13:04:40.031Z,27.91
2018-05-01T13:07:09.591Z,28.05
2018-05-01T13:09:39.317Z,27.94
2018-05-01T13:12:08.867Z,28.37
2018-05-01T13:14:38.413Z,28.74
2018-05-01T13:17:08.006Z,28.88
2018-05-01T13:19:37.556Z,29.07
2018-05-01T13:22:06.900Z,29.21
2018-05-01T13:24:35.999Z,29.36
2018-05-01T13:27:05.340Z,29.51
2018-05-01T13:29:34.935Z,29.67
2018-05-01T13:32:04.511Z,28.88
2018-05-01T13:34:34.199Z,28.21
2018-05-01T13:37:03.778Z,28.32
2018-05-01T13:39:33.415Z,27.33
2018-05-01T13:42:02.990Z,25.84
2018-05-01T13:44:32.629Z,24.35
2018-05-01T13:47:02.240Z,22.80
2018-05-01T13:49:31.827Z,22.21
2018-05-01T13:52:01.167Z,22.98
2018-05-01T13:54:30.736Z,21.72
2018-05-01T13:57:00.335Z,21.82
2018-05-01T13:59:29.907Z,21.75
2018-05-01T14:01:59.466Z,20.67
2018-05-01T14:04:29.075Z,20.00
2018-05-01T14:06:58.816Z,19.46
2018-05-01T14:09:28.401Z,19.08
2018-05-01T14:11:57.966Z,19.12
2018-05-01T14:14:27.512Z,18.64
2018-05-01T14:16:57.057Z,18.21
2018-05-01T14:19:26.822Z,17.52
2018-05-01T14:21:56.393Z,16.85
2018-05-01T14:24:25.959Z,16.28
2018-05-01T14:26:55.653Z,16.21
2018-05-01T14:29:25.216Z,16.87
2018-05-01T14:31:54.779Z,16.82
2018-05-01T14:34:24.345Z,17.25
2018-05-01T14:36:53.911Z,18.19
2018-05-01T14:39:23.602Z,18.57
2018-05-01T14:41:52.959Z,19.42
2018-05-01T14:44:22.567Z,19.19
2018-05-01T14:46:52.134Z,19.46
2018-05-01T14:49:21.851Z,19.45
2018-05-01T14:51:51.423Z,18.87
2018-05-01T14:54:21.002Z,19.03
2018-05-01T14:56:50.651Z,18.24
2018-05-01T14:59:19.982Z,17.93
2018-05-01T15:01:49.630Z,18.43
2018-05-01T15:04:19.318Z,18.51
2018-05-01T15:06:48.870Z,18.93
2018-05-01T15:09:18.502Z,19.83
2018-05-01T15:11:48.070Z,19.69
2018-05-01T15:14:19.614Z,20.90
2018-05-01T15:16:49.353Z,21.57
2018-05-01T15:19:19.301Z,22.32
2018-05-01T15:21:49.033Z,23.36
2018-05-01T15:24:18.594Z,24.51
2018-05-01T15:26:48.184Z,25.21
2018-05-01T15:29:18.263Z,25.87
2018-05-01T15:31:48.004Z,26.90
2018-05-01T15:34:17.576Z,27.78
2018-05-01T15:36:47.120Z,28.00
2018-05-01T15:39:16.697Z,28.70
2018-05-01T15:41:46.813Z,29.62
2018-05-01T15:44:16.399Z,29.86
2018-05-01T15:46:45.978Z,29.98
2018-05-01T15:49:15.575Z,30.47
2018-05-01T15:51:45.301Z,31.03
2018-05-01T15:54:15.774Z,31.00
2018-05-01T15:56:45.453Z,31.33
2018-05-01T15:59:15.009Z,31.58
2018-05-01T16:01:44.647Z,31.70
2018-05-01T16:04:14.259Z,31.87
2018-05-01T16:06:43.631Z,32.04
2018-05-01T16:09:13.421Z,32.28
2018-05-01T16:11:42.968Z,32.55
2018-05-01T16:14:12.680Z,32.90
2018-05-01T16:16:42.392Z,33.18
2018-05-01T16:19:11.786Z,33.66
2018-05-01T16:21:40.792Z,33.92
2018-05-01T16:24:10.399Z,34.46
2018-05-01T16:26:40.035Z,34.61
2018-05-01T16:29:09.623Z,34.89
2018-05-01T16:31:39.164Z,35.10
2018-05-01T16:34:08.829Z,34.59
2018-05-01T16:36:38.484Z,34.10
2018-05-01T16:39:08.107Z,33.58
2018-05-01T16:41:37.679Z,33.32
2018-05-01T16:44:07.220Z,33.35
2018-05-01T16:46:36.827Z,33.74
2018-05-01T16:49:06.414Z,33.53
2018-05-01T16:51:36.027Z,33.68
2018-05-01T16:54:05.585Z,33.88
2018-05-01T16:56:35.206Z,33.95
2018-05-01T16:59:04.763Z,33.64
2018-05-01T17:01:34.314Z,33.17
2018-05-01T17:04:03.655Z,33.19
2018-05-01T17:06:33.273Z,33.03
2018-05-01T17:09:02.836Z,32.91
2018-05-01T17:11:32.277Z,33.05
2018-05-01T17:14:01.850Z,33.20
2018-05-01T17:16:31.536Z,33.59
2018-05-01T17:19:01.115Z,33.71
2018-05-01T17:21:30.691Z,34.25
2018-05-01T17:24:00.262Z,34.52
2018-05-01T17:26:29.903Z,34.70
2018-05-01T17:28:59.478Z,34.89
2018-05-01T17:31:29.064Z,35.21
2018-05-01T17:33:58.732Z,35.76
2018-05-01T17:36:28.303Z,36.34
2018-05-01T17:38:57.922Z,36.38
2018-05-01T17:41:27.480Z,37.24
2018-05-01T17:43:57.043Z,37.62
2018-05-01T17:46:26.691Z,37.88
2018-05-01T17:48:56.258Z,38.24
2018-05-01T17:51:25.815Z,38.56
2018-05-01T17:53:55.390Z,38.93
2018-05-01T17:56:24.961Z,39.00
2018-05-01T17:58:54.517Z,39.04
2018-05-01T18:01:24.107Z,39.27
2018-05-01T18:03:53.662Z,39.29
2018-05-01T18:06:23.216Z,39.54
2018-05-01T18:08:52.775Z,39.42
2018-05-01T18:11:22.348Z,39.51
2018-05-01T18:13:52.235Z,39.73
2018-05-01T18:16:21.939Z,39.82
2018-05-01T18:18:51.539Z,39.84
2018-05-01T18:21:21.111Z,39.88
2018-05-01T18:23:50.975Z,39.95
2018-05-01T18:26:20.539Z,40.07
2018-05-01T18:28:50.128Z,40.47
2018-05-01T18:31:19.695Z,40.32
2018-05-01T18:33:49.612Z,40.46
2018-05-01T18:36:19.196Z,40.30
2018-05-01T18:38:48.927Z,40.37
2018-05-01T18:41:18.491Z,39.75
2018-05-01T18:43:48.045Z,39.60
2018-05-01T18:46:17.611Z,39.26
2018-05-01T18:48:46.970Z,39.38
2018-05-01T18:51:16.536Z,39.25
2018-05-01T18:53:46.230Z,39.21
2018-05-01T18:56:16.051Z,39.03
2018-05-01T18:58:45.644Z,39.04
2018-05-01T19:01:15.229Z,39.12
2018-05-01T19:03:44.828Z,38.94
2018-05-01T19:06:14.136Z,39.11
2018-05-01T19:08:44.506Z,39.14
2018-05-01T19:11:14.139Z,39.21
2018-05-01T19:13:44.403Z,39.33
2018-05-01T19:16:14.450Z,39.38
2018-05-01T19:18:44.084Z,39.34
2018-05-01T19:21:13.689Z,39.07
2018-05-01T19:23:43.270Z,39.23
2018-05-01T19:26:12.861Z,39.28
2018-05-01T19:28:42.670Z,39.31
2018-05-01T19:31:12.441Z,39.46
2018-05-01T19:33:42.168Z,39.49
2018-05-01T19:36:11.771Z,39.78
2018-05-01T19:38:41.332Z,39.51
2018-05-01T19:41:10.913Z,39.48
2018-05-01T19:43:40.504Z,39.79
2018-05-01T19:46:10.308Z,39.70
2018-05-01T19:48:39.927Z,39.97
2018-05-01T19:51:09.719Z,39.98
2018-05-01T19:53:39.440Z,40.07
2018-05-01T19:56:09.017Z,40.08
2018-05-01T19:58:38.579Z,39.99
2018-05-01T20:01:13.750Z,39.94
2018-05-01T20:03:43.327Z,40.02
2018-05-01T20:06:12.910Z,40.17
2018-05-01T20:08:42.479Z,40.52
2018-05-01T20:11:12.074Z,40.80
2018-05-01T20:13:41.673Z,42.03
2018-05-01T20:16:11.231Z,42.29
2018-05-01T20:18:40.880Z,42.63
2018-05-01T20:21:10.446Z,43.25
2018-05-01T20:23:39.998Z,43.52
2018-05-01T20:26:09.555Z,43.64
2018-05-01T20:28:39.120Z,43.73
2018-05-01T20:31:08.667Z,43.99
2018-05-01T20:33:38.107Z,44.25
2018-05-01T20:36:07.361Z,44.38
2018-05-01T20:38:36.930Z,44.49
2018-05-01T20:41:06.517Z,44.64
2018-05-01T20:43:36.097Z,44.68
2018-05-01T20:46:05.654Z,44.75
2018-05-01T20:48:35.226Z,44.79
2018-05-01T20:51:07.773Z,44.59
2018-05-01T20:53:37.375Z,44.66
2018-05-01T20:56:06.944Z,44.55
2018-05-01T20:58:36.684Z,44.56
2018-05-01T21:01:06.255Z,44.46
2018-05-01T21:03:35.828Z,44.52
2018-05-01T21:06:05.375Z,44.61
2018-05-01T21:08:34.967Z,44.69
2018-05-01T21:11:04.302Z,44.89
2018-05-01T21:13:33.866Z,44.88
2018-05-01T21:16:03.439Z,44.69
2018-05-01T21:18:32.981Z,44.55
2018-05-01T21:21:02.548Z,44.57
2018-05-01T21:23:31.881Z,44.48
2018-05-01T21:26:01.575Z,44.52
2018-05-01T21:28:31.131Z,44.02
2018-05-01T21:31:00.727Z,43.92
2018-05-01T21:33:30.396Z,43.85
2018-05-01T21:35:59.952Z,43.75
2018-05-01T21:38:29.545Z,43.46
2018-05-01T21:40:59.111Z,43.62
2018-05-01T21:43:28.657Z,43.54
2018-05-01T21:45:58.392Z,43.52
2018-05-01T21:48:27.939Z,43.66
2018-05-01T21:50:57.593Z,43.76
2018-05-01T21:53:27.162Z,44.03
2018-05-01T21:55:56.941Z,44.08
2018-05-01T21:58:26.516Z,43.95
2018-05-01T22:00:55.743Z,44.20
2018-05-01T22:03:25.308Z,44.24
2018-05-01T22:05:54.911Z,44.29
2018-05-01T22:08:24.752Z,44.42
2018-05-01T22:10:54.494Z,44.47
2018-05-01T22:13:24.052Z,44.53
2018-05-01T22:15:53.616Z,44.75
2018-05-01T22:18:23.191Z,44.73
2018-05-01T22:20:52.799Z,44.66
2018-05-01T22:23:22.371Z,44.67
2018-05-01T22:25:52.035Z,44.85
2018-05-01T22:28:21.615Z,45.20
2018-05-01T22:30:51.163Z,45.43
2018-05-01T22:33:20.719Z,45.33
2018-05-01T22:35:50.176Z,45.39
2018-05-01T22:38:19.747Z,45.37
2018-05-01T22:40:49.321Z,45.45
2018-05-01T22:43:18.884Z,45.58
2018-05-01T22:45:48.440Z,45.70
2018-05-01T22:48:18.020Z,45.80
2018-05-01T22:50:47.566Z,45.01
2018-05-01T22:53:17.132Z,45.24
2018-05-01T22:55:46.758Z,45.13
2018-05-01T22:58:16.314Z,44.97
2018-05-01T23:00:45.863Z,45.04
2018-05-01T23:03:15.446Z,45.16
2018-05-01T23:05:45.017Z,45.42
2018-05-01T23:08:14.659Z,45.98
2018-05-01T23:10:44.223Z,46.91
2018-05-01T23:13:13.767Z,46.37
2018-05-01T23:15:43.359Z,46.58
2018-05-01T23:18:12.914Z,45.78
2018-05-01T23:20:42.479Z,47.32
2018-05-01T23:23:12.048Z,47.40
2018-05-01T23:25:41.865Z,47.92
2018-05-01T23:28:11.427Z,47.62
2018-05-01T23:30:40.981Z,49.12
2018-05-01T23:33:10.551Z,48.89
2018-05-01T23:35:40.106Z,49.53
2018-05-01T23:38:09.674Z,49.11
2018-05-01T23:40:39.232Z,48.65
2018-05-01T23:43:08.786Z,47.74
2018-05-01T23:45:38.344Z,47.99
2018-05-01T23:48:07.912Z,47.72
2018-05-01T23:50:37.459Z,48.17
2018-05-01T23:53:07.029Z,48.27
2018-05-01T23:55:36.591Z,48.45
2018-05-01T23:58:06.167Z,48.22
